sensor_id;sensor_type;location;lat;lon;timestamp;temperature;humidity
27162;DHT22;54464;50.558;9.704;2023-08-07T00:01:45;11.70;99.90
27162;DHT22;54464;50.558;9.704;2023-08-07T00:04:11;11.60;99.90
27162;DHT22;54464;50.558;9.704;2023-08-07T00:06:36;11.70;99.90
27162;DHT22;54464;50.558;9.704;2023-08-07T00:09:02;11.60;99.90
27162;DHT22;54464;50.558;9.704;2023-08-07T00:11:28;11.60;99.90
27162;DHT22;54464;50.558;9.704;2023-08-07T00:13:54;11.60;99.90
27162;DHT22;54464;50.558;9.704;2023-08-07T00:16:19;11.60;99.90
27162;DHT22;54464;50.558;9.704;2023-08-07T00:18:45;11.50;99.90
27162;DHT22;54464;50.558;9.704;2023-08-07T00:21:11;11.50;99.90
27162;DHT22;54464;50.558;9.704;2023-08-07T00:23:37;11.50;99.90
27162;DHT22;54464;50.558;9.704;2023-08-07T00:26:02;11.50;99.90
27162;DHT22;54464;50.558;9.704;2023-08-07T00:28:28;11.50;99.90
27162;DHT22;54464;50.558;9.704;2023-08-07T00:30:55;11.50;99.90
27162;DHT22;54464;50.558;9.704;2023-08-07T00:33:20;11.50;99.90
27162;DHT22;54464;50.558;9.704;2023-08-07T00:35:46;11.50;99.90
27162;DHT22;54464;50.558;9.704;2023-08-07T00:38:11;11.40;99.90
27162;DHT22;54464;50.558;9.704;2023-08-07T00:40:38;11.40;99.90
27162;DHT22;54464;50.558;9.704;2023-08-07T00:43:04;11.40;99.90
27162;DHT22;54464;50.558;9.704;2023-08-07T00:45:42;11.40;99.90
27162;DHT22;54464;50.558;9.704;2023-08-07T00:48:08;11.40;99.90
27162;DHT22;54464;50.558;9.704;2023-08-07T00:50:34;11.40;99.90
27162;DHT22;54464;50.558;9.704;2023-08-07T00:53:00;11.40;99.90
27162;DHT22;54464;50.558;9.704;2023-08-07T00:55:26;11.40;99.90
27162;DHT22;54464;50.558;9.704;2023-08-07T00:57:52;11.40;99.90
27162;DHT22;54464;50.558;9.704;2023-08-07T01:00:18;11.40;99.90
27162;DHT22;54464;50.558;9.704;2023-08-07T01:02:46;11.30;99.90
27162;DHT22;54464;50.558;9.704;2023-08-07T01:05:14;11.40;99.90
27162;DHT22;54464;50.558;9.704;2023-08-07T01:07:40;11.40;99.90
27162;DHT22;54464;50.558;9.704;2023-08-07T01:10:06;11.40;99.90
27162;DHT22;54464;50.558;9.704;2023-08-07T01:12:56;11.40;99.90
27162;DHT22;54464;50.558;9.704;2023-08-07T01:15:30;11.40;99.90
27162;DHT22;54464;50.558;9.704;2023-08-07T01:17:56;11.40;99.90
27162;DHT22;54464;50.558;9.704;2023-08-07T01:20:23;11.40;99.90
27162;DHT22;54464;50.558;9.704;2023-08-07T01:22:49;11.30;99.90
27162;DHT22;54464;50.558;9.704;2023-08-07T01:25:14;11.40;99.90
27162;DHT22;54464;50.558;9.704;2023-08-07T01:30:33;11.40;99.90
27162;DHT22;54464;50.558;9.704;2023-08-07T01:35:29;11.40;99.90
27162;DHT22;54464;50.558;9.704;2023-08-07T01:37:57;11.40;99.90
27162;DHT22;54464;50.558;9.704;2023-08-07T01:40:24;11.30;99.90
27162;DHT22;54464;50.558;9.704;2023-08-07T01:42:49;11.30;99.90
27162;DHT22;54464;50.558;9.704;2023-08-07T01:45:25;11.40;99.90
27162;DHT22;54464;50.558;9.704;2023-08-07T01:47:52;11.40;99.90
27162;DHT22;54464;50.558;9.704;2023-08-07T01:50:19;11.40;99.90
27162;DHT22;54464;50.558;9.704;2023-08-07T01:52:45;11.30;99.90
27162;DHT22;54464;50.558;9.704;2023-08-07T01:55:15;11.30;99.90
27162;DHT22;54464;50.558;9.704;2023-08-07T01:57:41;11.40;99.90
27162;DHT22;54464;50.558;9.704;2023-08-07T02:00:07;11.40;99.90
27162;DHT22;54464;50.558;9.704;2023-08-07T02:02:34;11.40;99.90
27162;DHT22;54464;50.558;9.704;2023-08-07T02:04:59;11.40;99.90
27162;DHT22;54464;50.558;9.704;2023-08-07T02:07:25;11.40;99.90
27162;DHT22;54464;50.558;9.704;2023-08-07T02:09:51;11.40;99.90
27162;DHT22;54464;50.558;9.704;2023-08-07T02:12:16;11.40;99.90
27162;DHT22;54464;50.558;9.704;2023-08-07T02:14:42;11.50;99.90
27162;DHT22;54464;50.558;9.704;2023-08-07T02:17:07;11.40;99.90
27162;DHT22;54464;50.558;9.704;2023-08-07T02:19:33;11.40;99.90
27162;DHT22;54464;50.558;9.704;2023-08-07T02:21:58;11.40;99.90
27162;DHT22;54464;50.558;9.704;2023-08-07T02:24:24;11.40;99.90
27162;DHT22;54464;50.558;9.704;2023-08-07T02:26:49;11.40;99.90
27162;DHT22;54464;50.558;9.704;2023-08-07T02:29:15;11.40;99.90
27162;DHT22;54464;50.558;9.704;2023-08-07T02:31:41;11.40;99.90
27162;DHT22;54464;50.558;9.704;2023-08-07T02:34:06;11.40;99.90
27162;DHT22;54464;50.558;9.704;2023-08-07T02:36:32;11.40;99.90
27162;DHT22;54464;50.558;9.704;2023-08-07T02:38:57;11.30;99.90
27162;DHT22;54464;50.558;9.704;2023-08-07T02:41:23;11.40;99.90
27162;DHT22;54464;50.558;9.704;2023-08-07T02:43:48;11.30;99.90
27162;DHT22;54464;50.558;9.704;2023-08-07T02:46:14;11.30;99.90
27162;DHT22;54464;50.558;9.704;2023-08-07T02:48:40;11.30;99.90
27162;DHT22;54464;50.558;9.704;2023-08-07T02:51:05;11.30;99.90
27162;DHT22;54464;50.558;9.704;2023-08-07T02:53:31;11.30;99.90
27162;DHT22;54464;50.558;9.704;2023-08-07T02:55:57;11.20;99.90
27162;DHT22;54464;50.558;9.704;2023-08-07T02:58:22;11.20;99.90
27162;DHT22;54464;50.558;9.704;2023-08-07T03:00:48;11.20;99.90
27162;DHT22;54464;50.558;9.704;2023-08-07T03:03:13;11.10;99.90
27162;DHT22;54464;50.558;9.704;2023-08-07T03:05:48;11.10;99.90
27162;DHT22;54464;50.558;9.704;2023-08-07T03:08:15;11.10;99.90
27162;DHT22;54464;50.558;9.704;2023-08-07T03:10:40;11.10;99.90
27162;DHT22;54464;50.558;9.704;2023-08-07T03:13:06;11.20;99.90
27162;DHT22;54464;50.558;9.704;2023-08-07T03:15:31;11.20;99.90
27162;DHT22;54464;50.558;9.704;2023-08-07T03:17:57;11.20;99.90
27162;DHT22;54464;50.558;9.704;2023-08-07T03:20:23;11.20;99.90
27162;DHT22;54464;50.558;9.704;2023-08-07T03:22:48;11.20;99.90
27162;DHT22;54464;50.558;9.704;2023-08-07T03:25:14;11.20;99.90
27162;DHT22;54464;50.558;9.704;2023-08-07T03:27:39;11.30;99.90
27162;DHT22;54464;50.558;9.704;2023-08-07T03:30:05;11.30;99.90
27162;DHT22;54464;50.558;9.704;2023-08-07T03:32:31;11.30;99.90
27162;DHT22;54464;50.558;9.704;2023-08-07T03:34:57;11.30;99.90
27162;DHT22;54464;50.558;9.704;2023-08-07T03:37:22;11.30;99.90
27162;DHT22;54464;50.558;9.704;2023-08-07T03:39:48;11.30;99.90
27162;DHT22;54464;50.558;9.704;2023-08-07T03:42:14;11.30;99.90
27162;DHT22;54464;50.558;9.704;2023-08-07T03:44:42;11.30;99.90
27162;DHT22;54464;50.558;9.704;2023-08-07T03:47:08;11.30;99.90
27162;DHT22;54464;50.558;9.704;2023-08-07T03:49:33;11.30;99.90
27162;DHT22;54464;50.558;9.704;2023-08-07T03:51:59;11.30;99.90
27162;DHT22;54464;50.558;9.704;2023-08-07T03:54:25;11.30;99.90
27162;DHT22;54464;50.558;9.704;2023-08-07T03:56:51;11.30;99.90
27162;DHT22;54464;50.558;9.704;2023-08-07T03:59:17;11.30;99.90
27162;DHT22;54464;50.558;9.704;2023-08-07T04:01:45;11.30;99.90
27162;DHT22;54464;50.558;9.704;2023-08-07T04:04:11;11.20;99.90
27162;DHT22;54464;50.558;9.704;2023-08-07T04:06:36;11.20;99.90
27162;DHT22;54464;50.558;9.704;2023-08-07T04:09:02;11.20;99.90
27162;DHT22;54464;50.558;9.704;2023-08-07T04:11:28;11.20;99.90
27162;DHT22;54464;50.558;9.704;2023-08-07T04:13:54;11.20;99.90
27162;DHT22;54464;50.558;9.704;2023-08-07T04:16:20;11.20;99.90
27162;DHT22;54464;50.558;9.704;2023-08-07T04:18:45;11.20;99.90
27162;DHT22;54464;50.558;9.704;2023-08-07T04:21:11;11.20;99.90
27162;DHT22;54464;50.558;9.704;2023-08-07T04:23:37;11.20;99.90
27162;DHT22;54464;50.558;9.704;2023-08-07T04:26:03;11.20;99.90
27162;DHT22;54464;50.558;9.704;2023-08-07T04:28:29;11.20;99.90
27162;DHT22;54464;50.558;9.704;2023-08-07T04:30:55;11.30;99.90
27162;DHT22;54464;50.558;9.704;2023-08-07T04:33:21;11.20;99.90
27162;DHT22;54464;50.558;9.704;2023-08-07T04:35:46;11.20;99.90
27162;DHT22;54464;50.558;9.704;2023-08-07T04:38:13;11.20;99.90
27162;DHT22;54464;50.558;9.704;2023-08-07T04:40:47;11.30;99.90
27162;DHT22;54464;50.558;9.704;2023-08-07T04:43:14;11.30;99.90
27162;DHT22;54464;50.558;9.704;2023-08-07T04:45:40;11.30;99.90
27162;DHT22;54464;50.558;9.704;2023-08-07T04:48:07;11.30;99.90
27162;DHT22;54464;50.558;9.704;2023-08-07T04:50:32;11.30;99.90
27162;DHT22;54464;50.558;9.704;2023-08-07T04:52:58;11.30;99.90
27162;DHT22;54464;50.558;9.704;2023-08-07T04:55:23;11.30;99.90
27162;DHT22;54464;50.558;9.704;2023-08-07T04:57:49;11.40;99.90
27162;DHT22;54464;50.558;9.704;2023-08-07T05:00:16;11.30;99.90
27162;DHT22;54464;50.558;9.704;2023-08-07T05:02:42;11.40;99.90
27162;DHT22;54464;50.558;9.704;2023-08-07T05:05:08;11.40;99.90
27162;DHT22;54464;50.558;9.704;2023-08-07T05:07:35;11.40;99.90
27162;DHT22;54464;50.558;9.704;2023-08-07T05:10:02;11.30;99.90
27162;DHT22;54464;50.558;9.704;2023-08-07T05:12:28;11.40;99.90
27162;DHT22;54464;50.558;9.704;2023-08-07T05:14:54;11.30;99.90
27162;DHT22;54464;50.558;9.704;2023-08-07T05:17:19;11.30;99.90
27162;DHT22;54464;50.558;9.704;2023-08-07T05:19:45;11.30;99.90
27162;DHT22;54464;50.558;9.704;2023-08-07T05:22:10;11.30;99.90
27162;DHT22;54464;50.558;9.704;2023-08-07T05:24:36;11.40;99.90
27162;DHT22;54464;50.558;9.704;2023-08-07T05:27:13;11.40;99.90
27162;DHT22;54464;50.558;9.704;2023-08-07T05:29:38;11.40;99.90
27162;DHT22;54464;50.558;9.704;2023-08-07T05:32:13;11.30;99.90
27162;DHT22;54464;50.558;9.704;2023-08-07T05:34:40;11.30;99.90
27162;DHT22;54464;50.558;9.704;2023-08-07T05:37:06;11.40;99.90
27162;DHT22;54464;50.558;9.704;2023-08-07T05:39:32;11.40;99.90
27162;DHT22;54464;50.558;9.704;2023-08-07T05:41:58;11.50;99.90
27162;DHT22;54464;50.558;9.704;2023-08-07T05:44:24;11.40;99.90
27162;DHT22;54464;50.558;9.704;2023-08-07T05:46:50;11.20;99.90
27162;DHT22;54464;50.558;9.704;2023-08-07T05:49:15;11.10;99.90
27162;DHT22;54464;50.558;9.704;2023-08-07T05:51:41;11.00;99.90
27162;DHT22;54464;50.558;9.704;2023-08-07T05:54:07;11.00;99.90
27162;DHT22;54464;50.558;9.704;2023-08-07T05:56:32;11.00;99.90
27162;DHT22;54464;50.558;9.704;2023-08-07T05:58:58;11.00;99.90
27162;DHT22;54464;50.558;9.704;2023-08-07T06:01:24;11.00;99.90
27162;DHT22;54464;50.558;9.704;2023-08-07T06:03:55;11.00;99.90
27162;DHT22;54464;50.558;9.704;2023-08-07T06:06:21;11.10;99.90
27162;DHT22;54464;50.558;9.704;2023-08-07T06:08:47;11.10;99.90
27162;DHT22;54464;50.558;9.704;2023-08-07T06:11:12;11.10;99.90
27162;DHT22;54464;50.558;9.704;2023-08-07T06:13:39;11.20;99.90
27162;DHT22;54464;50.558;9.704;2023-08-07T06:16:05;11.20;99.90
27162;DHT22;54464;50.558;9.704;2023-08-07T06:18:31;11.10;99.90
27162;DHT22;54464;50.558;9.704;2023-08-07T06:20:57;11.20;99.90
27162;DHT22;54464;50.558;9.704;2023-08-07T06:23:22;11.10;99.90
27162;DHT22;54464;50.558;9.704;2023-08-07T06:25:48;11.10;99.90
27162;DHT22;54464;50.558;9.704;2023-08-07T06:28:14;11.10;99.90
27162;DHT22;54464;50.558;9.704;2023-08-07T06:30:39;11.20;99.90
27162;DHT22;54464;50.558;9.704;2023-08-07T06:33:05;11.20;99.90
27162;DHT22;54464;50.558;9.704;2023-08-07T06:35:30;11.20;99.90
27162;DHT22;54464;50.558;9.704;2023-08-07T06:37:56;11.20;99.90
27162;DHT22;54464;50.558;9.704;2023-08-07T06:40:21;11.30;99.90
27162;DHT22;54464;50.558;9.704;2023-08-07T06:42:47;11.30;99.90
27162;DHT22;54464;50.558;9.704;2023-08-07T06:45:12;11.30;99.90
27162;DHT22;54464;50.558;9.704;2023-08-07T06:47:38;11.30;99.90
27162;DHT22;54464;50.558;9.704;2023-08-07T06:50:04;11.30;99.90
27162;DHT22;54464;50.558;9.704;2023-08-07T06:52:30;11.30;99.90
27162;DHT22;54464;50.558;9.704;2023-08-07T06:54:56;11.40;99.90
27162;DHT22;54464;50.558;9.704;2023-08-07T06:57:21;11.30;99.90
27162;DHT22;54464;50.558;9.704;2023-08-07T06:59:47;11.30;99.90
27162;DHT22;54464;50.558;9.704;2023-08-07T07:02:13;11.20;99.90
27162;DHT22;54464;50.558;9.704;2023-08-07T07:04:38;11.20;99.90
27162;DHT22;54464;50.558;9.704;2023-08-07T07:07:04;11.20;99.90
27162;DHT22;54464;50.558;9.704;2023-08-07T07:09:29;11.20;99.90
27162;DHT22;54464;50.558;9.704;2023-08-07T07:11:55;11.10;99.90
27162;DHT22;54464;50.558;9.704;2023-08-07T07:14:21;11.10;99.90
27162;DHT22;54464;50.558;9.704;2023-08-07T07:16:47;11.10;99.90
27162;DHT22;54464;50.558;9.704;2023-08-07T07:19:12;11.00;99.90
27162;DHT22;54464;50.558;9.704;2023-08-07T07:21:38;11.00;99.90
27162;DHT22;54464;50.558;9.704;2023-08-07T07:24:04;11.00;99.90
27162;DHT22;54464;50.558;9.704;2023-08-07T07:26:30;11.00;99.90
27162;DHT22;54464;50.558;9.704;2023-08-07T07:28:56;11.10;99.90
27162;DHT22;54464;50.558;9.704;2023-08-07T07:31:22;11.00;99.90
27162;DHT22;54464;50.558;9.704;2023-08-07T07:33:48;11.00;99.90
27162;DHT22;54464;50.558;9.704;2023-08-07T07:36:15;11.00;99.90
27162;DHT22;54464;50.558;9.704;2023-08-07T07:38:41;11.00;99.90
27162;DHT22;54464;50.558;9.704;2023-08-07T07:41:06;11.00;99.90
27162;DHT22;54464;50.558;9.704;2023-08-07T07:43:35;11.10;99.90
27162;DHT22;54464;50.558;9.704;2023-08-07T07:46:01;11.10;99.90
27162;DHT22;54464;50.558;9.704;2023-08-07T07:48:35;11.20;99.90
27162;DHT22;54464;50.558;9.704;2023-08-07T07:51:19;11.20;99.90
27162;DHT22;54464;50.558;9.704;2023-08-07T07:53:47;11.20;99.90
27162;DHT22;54464;50.558;9.704;2023-08-07T07:56:13;11.20;99.90
27162;DHT22;54464;50.558;9.704;2023-08-07T07:58:39;11.20;99.90
27162;DHT22;54464;50.558;9.704;2023-08-07T08:01:06;11.30;99.90
27162;DHT22;54464;50.558;9.704;2023-08-07T08:03:32;11.30;99.90
27162;DHT22;54464;50.558;9.704;2023-08-07T08:05:58;11.30;99.90
27162;DHT22;54464;50.558;9.704;2023-08-07T08:08:23;11.30;99.90
27162;DHT22;54464;50.558;9.704;2023-08-07T08:10:49;11.40;99.90
27162;DHT22;54464;50.558;9.704;2023-08-07T08:13:16;11.30;99.90
27162;DHT22;54464;50.558;9.704;2023-08-07T08:15:42;11.30;99.90
27162;DHT22;54464;50.558;9.704;2023-08-07T08:18:08;11.30;99.90
27162;DHT22;54464;50.558;9.704;2023-08-07T08:20:33;11.30;99.90
27162;DHT22;54464;50.558;9.704;2023-08-07T08:22:59;11.30;99.90
27162;DHT22;54464;50.558;9.704;2023-08-07T08:25:25;11.30;99.90
27162;DHT22;54464;50.558;9.704;2023-08-07T08:27:50;11.30;99.90
27162;DHT22;54464;50.558;9.704;2023-08-07T08:30:16;11.40;99.90
27162;DHT22;54464;50.558;9.704;2023-08-07T08:32:42;11.40;99.90
27162;DHT22;54464;50.558;9.704;2023-08-07T08:35:08;11.40;99.90
27162;DHT22;54464;50.558;9.704;2023-08-07T08:37:34;11.50;99.90
27162;DHT22;54464;50.558;9.704;2023-08-07T08:40:00;11.50;99.90
27162;DHT22;54464;50.558;9.704;2023-08-07T08:42:28;11.60;99.90
27162;DHT22;54464;50.558;9.704;2023-08-07T08:44:59;11.60;99.90
27162;DHT22;54464;50.558;9.704;2023-08-07T08:47:26;11.60;99.90
27162;DHT22;54464;50.558;9.704;2023-08-07T08:50:03;11.70;99.90
27162;DHT22;54464;50.558;9.704;2023-08-07T08:52:31;11.70;99.90
27162;DHT22;54464;50.558;9.704;2023-08-07T08:54:58;11.70;99.90
27162;DHT22;54464;50.558;9.704;2023-08-07T08:57:28;11.70;99.90
27162;DHT22;54464;50.558;9.704;2023-08-07T08:59:55;11.70;99.90
27162;DHT22;54464;50.558;9.704;2023-08-07T09:02:22;11.70;99.90
27162;DHT22;54464;50.558;9.704;2023-08-07T09:04:47;11.70;99.90
27162;DHT22;54464;50.558;9.704;2023-08-07T09:07:15;11.80;99.90
27162;DHT22;54464;50.558;9.704;2023-08-07T09:09:41;11.80;99.90
27162;DHT22;54464;50.558;9.704;2023-08-07T09:12:20;11.80;99.90
27162;DHT22;54464;50.558;9.704;2023-08-07T09:14:54;11.90;99.90
27162;DHT22;54464;50.558;9.704;2023-08-07T09:17:24;12.00;99.90
27162;DHT22;54464;50.558;9.704;2023-08-07T09:19:52;12.00;99.90
27162;DHT22;54464;50.558;9.704;2023-08-07T09:22:19;12.10;99.90
27162;DHT22;54464;50.558;9.704;2023-08-07T09:24:45;12.10;99.90
27162;DHT22;54464;50.558;9.704;2023-08-07T09:27:10;12.10;99.90
27162;DHT22;54464;50.558;9.704;2023-08-07T09:29:36;12.10;99.90
27162;DHT22;54464;50.558;9.704;2023-08-07T09:32:22;12.10;99.90
27162;DHT22;54464;50.558;9.704;2023-08-07T09:34:50;12.10;99.90
27162;DHT22;54464;50.558;9.704;2023-08-07T09:37:16;12.10;99.90
27162;DHT22;54464;50.558;9.704;2023-08-07T09:39:42;12.10;99.90
27162;DHT22;54464;50.558;9.704;2023-08-07T09:42:20;12.10;99.90
27162;DHT22;54464;50.558;9.704;2023-08-07T09:44:45;12.10;99.90
27162;DHT22;54464;50.558;9.704;2023-08-07T09:49:39;12.10;99.90
27162;DHT22;54464;50.558;9.704;2023-08-07T09:52:06;12.10;99.90
27162;DHT22;54464;50.558;9.704;2023-08-07T09:54:33;12.10;99.90
27162;DHT22;54464;50.558;9.704;2023-08-07T09:57:00;12.10;99.90
27162;DHT22;54464;50.558;9.704;2023-08-07T09:59:27;12.10;99.90
27162;DHT22;54464;50.558;9.704;2023-08-07T10:01:55;12.20;99.90
27162;DHT22;54464;50.558;9.704;2023-08-07T10:04:21;12.20;99.90
27162;DHT22;54464;50.558;9.704;2023-08-07T10:06:47;12.20;99.90
27162;DHT22;54464;50.558;9.704;2023-08-07T10:09:13;12.20;99.90
27162;DHT22;54464;50.558;9.704;2023-08-07T10:11:40;12.20;99.90
27162;DHT22;54464;50.558;9.704;2023-08-07T10:14:06;12.20;99.90
27162;DHT22;54464;50.558;9.704;2023-08-07T10:16:32;12.20;99.90
27162;DHT22;54464;50.558;9.704;2023-08-07T10:18:58;12.20;99.90
27162;DHT22;54464;50.558;9.704;2023-08-07T10:21:24;12.20;99.90
27162;DHT22;54464;50.558;9.704;2023-08-07T10:23:53;12.20;99.90
27162;DHT22;54464;50.558;9.704;2023-08-07T10:26:20;12.20;99.90
27162;DHT22;54464;50.558;9.704;2023-08-07T10:28:48;12.20;99.90
27162;DHT22;54464;50.558;9.704;2023-08-07T10:31:16;12.30;99.90
27162;DHT22;54464;50.558;9.704;2023-08-07T10:33:42;12.30;99.90
27162;DHT22;54464;50.558;9.704;2023-08-07T10:36:09;12.30;99.90
27162;DHT22;54464;50.558;9.704;2023-08-07T10:38:35;12.40;99.90
27162;DHT22;54464;50.558;9.704;2023-08-07T10:41:06;12.50;99.90
27162;DHT22;54464;50.558;9.704;2023-08-07T10:43:40;12.50;99.90
27162;DHT22;54464;50.558;9.704;2023-08-07T10:46:07;12.50;99.90
27162;DHT22;54464;50.558;9.704;2023-08-07T10:48:41;12.60;99.90
27162;DHT22;54464;50.558;9.704;2023-08-07T10:51:07;12.60;99.90
27162;DHT22;54464;50.558;9.704;2023-08-07T10:53:44;12.60;99.90
27162;DHT22;54464;50.558;9.704;2023-08-07T10:56:18;12.60;99.90
27162;DHT22;54464;50.558;9.704;2023-08-07T10:58:50;12.60;99.90
27162;DHT22;54464;50.558;9.704;2023-08-07T11:03:57;12.80;99.90
27162;DHT22;54464;50.558;9.704;2023-08-07T11:06:29;12.80;99.90
27162;DHT22;54464;50.558;9.704;2023-08-07T11:08:59;12.90;99.90
27162;DHT22;54464;50.558;9.704;2023-08-07T11:11:24;12.90;99.90
27162;DHT22;54464;50.558;9.704;2023-08-07T11:13:51;12.90;99.90
27162;DHT22;54464;50.558;9.704;2023-08-07T11:16:17;12.90;99.90
27162;DHT22;54464;50.558;9.704;2023-08-07T11:18:47;13.00;99.90
27162;DHT22;54464;50.558;9.704;2023-08-07T11:21:13;13.10;99.90
27162;DHT22;54464;50.558;9.704;2023-08-07T11:23:39;13.10;99.90
27162;DHT22;54464;50.558;9.704;2023-08-07T11:26:06;13.20;99.90
27162;DHT22;54464;50.558;9.704;2023-08-07T11:28:32;13.10;99.90
27162;DHT22;54464;50.558;9.704;2023-08-07T11:30:58;13.20;99.90
27162;DHT22;54464;50.558;9.704;2023-08-07T11:33:25;13.30;99.90
27162;DHT22;54464;50.558;9.704;2023-08-07T11:35:51;13.40;99.90
27162;DHT22;54464;50.558;9.704;2023-08-07T11:38:30;13.50;99.90
27162;DHT22;54464;50.558;9.704;2023-08-07T11:41:00;13.60;99.90
27162;DHT22;54464;50.558;9.704;2023-08-07T11:43:30;13.70;99.90
27162;DHT22;54464;50.558;9.704;2023-08-07T11:46:00;13.70;99.90
27162;DHT22;54464;50.558;9.704;2023-08-07T11:48:27;13.80;99.90
27162;DHT22;54464;50.558;9.704;2023-08-07T11:50:54;13.90;99.90
27162;DHT22;54464;50.558;9.704;2023-08-07T11:53:26;14.00;99.90
27162;DHT22;54464;50.558;9.704;2023-08-07T11:58:24;13.80;99.90
27162;DHT22;54464;50.558;9.704;2023-08-07T12:00:51;13.90;99.90
27162;DHT22;54464;50.558;9.704;2023-08-07T12:03:50;13.90;99.90
27162;DHT22;54464;50.558;9.704;2023-08-07T12:06:16;14.10;99.90
27162;DHT22;54464;50.558;9.704;2023-08-07T12:08:41;14.00;99.90
27162;DHT22;54464;50.558;9.704;2023-08-07T12:11:12;14.10;99.90
27162;DHT22;54464;50.558;9.704;2023-08-07T12:13:39;14.10;99.90
27162;DHT22;54464;50.558;9.704;2023-08-07T12:16:05;14.00;99.90
27162;DHT22;54464;50.558;9.704;2023-08-07T12:18:31;14.00;99.90
27162;DHT22;54464;50.558;9.704;2023-08-07T12:20:59;14.10;99.90
27162;DHT22;54464;50.558;9.704;2023-08-07T12:23:25;14.10;99.90
27162;DHT22;54464;50.558;9.704;2023-08-07T12:25:51;14.40;99.90
27162;DHT22;54464;50.558;9.704;2023-08-07T12:28:18;14.40;99.90
27162;DHT22;54464;50.558;9.704;2023-08-07T12:30:48;14.40;99.90
27162;DHT22;54464;50.558;9.704;2023-08-07T12:33:14;14.20;99.90
27162;DHT22;54464;50.558;9.704;2023-08-07T12:35:40;13.50;99.90
27162;DHT22;54464;50.558;9.704;2023-08-07T12:38:07;13.00;99.90
27162;DHT22;54464;50.558;9.704;2023-08-07T12:40:33;13.10;99.90
27162;DHT22;54464;50.558;9.704;2023-08-07T12:43:02;13.50;99.90
27162;DHT22;54464;50.558;9.704;2023-08-07T12:45:27;13.80;99.90
27162;DHT22;54464;50.558;9.704;2023-08-07T12:47:53;14.00;99.90
27162;DHT22;54464;50.558;9.704;2023-08-07T12:50:18;14.20;99.90
27162;DHT22;54464;50.558;9.704;2023-08-07T12:52:44;14.40;99.90
27162;DHT22;54464;50.558;9.704;2023-08-07T12:55:10;14.60;99.90
27162;DHT22;54464;50.558;9.704;2023-08-07T12:57:37;14.70;99.90
27162;DHT22;54464;50.558;9.704;2023-08-07T13:00:03;14.80;99.90
27162;DHT22;54464;50.558;9.704;2023-08-07T13:02:29;14.90;99.90
27162;DHT22;54464;50.558;9.704;2023-08-07T13:04:55;14.70;99.90
27162;DHT22;54464;50.558;9.704;2023-08-07T13:07:22;14.70;99.90
27162;DHT22;54464;50.558;9.704;2023-08-07T13:09:49;14.60;99.90
27162;DHT22;54464;50.558;9.704;2023-08-07T13:12:14;14.60;99.90
27162;DHT22;54464;50.558;9.704;2023-08-07T13:14:40;14.60;99.90
27162;DHT22;54464;50.558;9.704;2023-08-07T13:17:06;14.50;99.90
27162;DHT22;54464;50.558;9.704;2023-08-07T13:19:31;14.60;99.90
27162;DHT22;54464;50.558;9.704;2023-08-07T13:21:57;14.60;99.90
27162;DHT22;54464;50.558;9.704;2023-08-07T13:24:22;14.60;99.90
27162;DHT22;54464;50.558;9.704;2023-08-07T13:26:48;14.70;99.90
27162;DHT22;54464;50.558;9.704;2023-08-07T13:29:14;14.60;99.90
27162;DHT22;54464;50.558;9.704;2023-08-07T13:31:40;14.60;99.90
27162;DHT22;54464;50.558;9.704;2023-08-07T13:34:11;14.50;99.90
27162;DHT22;54464;50.558;9.704;2023-08-07T13:36:38;14.40;99.90
27162;DHT22;54464;50.558;9.704;2023-08-07T13:39:04;12.90;99.90
27162;DHT22;54464;50.558;9.704;2023-08-07T13:41:30;12.50;99.90
27162;DHT22;54464;50.558;9.704;2023-08-07T13:43:56;12.70;99.90
27162;DHT22;54464;50.558;9.704;2023-08-07T13:46:21;12.90;99.90
27162;DHT22;54464;50.558;9.704;2023-08-07T13:48:50;13.60;99.90
27162;DHT22;54464;50.558;9.704;2023-08-07T13:51:15;13.60;99.90
27162;DHT22;54464;50.558;9.704;2023-08-07T13:53:42;13.70;99.90
27162;DHT22;54464;50.558;9.704;2023-08-07T13:56:07;14.00;99.90
27162;DHT22;54464;50.558;9.704;2023-08-07T13:58:36;14.10;99.90
27162;DHT22;54464;50.558;9.704;2023-08-07T14:01:02;14.30;99.90
27162;DHT22;54464;50.558;9.704;2023-08-07T14:03:27;14.60;99.90
27162;DHT22;54464;50.558;9.704;2023-08-07T14:05:53;14.90;99.90
27162;DHT22;54464;50.558;9.704;2023-08-07T14:08:19;15.40;99.90
27162;DHT22;54464;50.558;9.704;2023-08-07T14:10:44;16.00;99.90
27162;DHT22;54464;50.558;9.704;2023-08-07T14:13:10;16.70;99.90
27162;DHT22;54464;50.558;9.704;2023-08-07T14:15:36;17.10;99.90
27162;DHT22;54464;50.558;9.704;2023-08-07T14:18:02;16.50;99.90
27162;DHT22;54464;50.558;9.704;2023-08-07T14:20:28;15.30;99.90
27162;DHT22;54464;50.558;9.704;2023-08-07T14:22:54;15.10;99.90
27162;DHT22;54464;50.558;9.704;2023-08-07T14:25:19;14.90;99.90
27162;DHT22;54464;50.558;9.704;2023-08-07T14:27:47;14.80;99.90
27162;DHT22;54464;50.558;9.704;2023-08-07T14:30:13;14.90;99.90
27162;DHT22;54464;50.558;9.704;2023-08-07T14:32:39;14.80;99.90
27162;DHT22;54464;50.558;9.704;2023-08-07T14:35:05;14.90;99.90
27162;DHT22;54464;50.558;9.704;2023-08-07T14:37:31;14.90;99.90
27162;DHT22;54464;50.558;9.704;2023-08-07T14:39:56;14.90;99.90
27162;DHT22;54464;50.558;9.704;2023-08-07T14:42:23;14.90;99.90
27162;DHT22;54464;50.558;9.704;2023-08-07T14:44:48;14.90;99.90
27162;DHT22;54464;50.558;9.704;2023-08-07T14:47:14;15.20;99.90
27162;DHT22;54464;50.558;9.704;2023-08-07T14:49:39;15.90;99.90
27162;DHT22;54464;50.558;9.704;2023-08-07T14:52:05;17.10;99.90
27162;DHT22;54464;50.558;9.704;2023-08-07T14:54:32;16.70;99.90
27162;DHT22;54464;50.558;9.704;2023-08-07T14:56:58;17.20;99.90
27162;DHT22;54464;50.558;9.704;2023-08-07T14:59:24;17.90;99.90
27162;DHT22;54464;50.558;9.704;2023-08-07T15:01:50;17.80;99.90
27162;DHT22;54464;50.558;9.704;2023-08-07T15:04:16;17.40;99.90
27162;DHT22;54464;50.558;9.704;2023-08-07T15:06:41;18.40;99.90
27162;DHT22;54464;50.558;9.704;2023-08-07T15:09:08;18.00;99.90
27162;DHT22;54464;50.558;9.704;2023-08-07T15:11:34;19.00;99.90
27162;DHT22;54464;50.558;9.704;2023-08-07T15:14:00;19.50;99.90
27162;DHT22;54464;50.558;9.704;2023-08-07T15:16:25;17.70;99.90
27162;DHT22;54464;50.558;9.704;2023-08-07T15:18:51;16.60;99.90
27162;DHT22;54464;50.558;9.704;2023-08-07T15:21:16;15.90;99.90
27162;DHT22;54464;50.558;9.704;2023-08-07T15:23:43;15.60;99.90
27162;DHT22;54464;50.558;9.704;2023-08-07T15:26:09;15.50;99.90
27162;DHT22;54464;50.558;9.704;2023-08-07T15:28:35;15.30;99.90
27162;DHT22;54464;50.558;9.704;2023-08-07T15:31:00;15.30;99.90
27162;DHT22;54464;50.558;9.704;2023-08-07T15:33:26;15.30;99.90
27162;DHT22;54464;50.558;9.704;2023-08-07T15:35:54;14.70;99.90
27162;DHT22;54464;50.558;9.704;2023-08-07T15:38:19;13.90;99.90
27162;DHT22;54464;50.558;9.704;2023-08-07T15:40:45;13.10;99.90